Time;durP1;ratioP1;P1;durP2;ratioP2;P2;SDS_P1;SDS_P2;PMS_P1;PMS_P2;Temp;Humidity;BMP_temperature;BMP_pressure;BME280_temperature;BME280_humidity;BME280_pressure;Samples;Min_cycle;Max_cycle;Signal;HPM_P1;HPM_P2
2023/07/24 00:00:19;;;;;;;;;;;;;;;;;;5091736;28;20019;-68
2023/07/24 00:02:46;;;;;;;;;;;;;;;;;;5085487;28;20018;-68
2023/07/24 00:05:13;;;;;;;;;;;;;;;;;;5092824;28;19930;-68
2023/07/24 00:07:40;;;;;;;;;;;;;;;;;;5092879;28;19931;-68
2023/07/24 00:10:07;;;;;;;;;;;;;;;;;;5084576;28;20402;-68
2023/07/24 00:12:34;;;;;;;;;;;;;;;;;;5086258;28;20357;-69
2023/07/24 00:15:01;;;;;;;;;;;;;;;;;;5092553;28;20294;-69
2023/07/24 00:17:28;;;;;;;;;;;;;;;;;;5093027;28;20442;-68
2023/07/24 00:19:55;;;;;;;;;;;;;;;;;;5092852;28;20397;-69
2023/07/24 00:22:22;;;;;;;;;;;;;;;;;;5092870;28;19967;-69
2023/07/24 00:24:49;;;;;;;;;;;;;;;;;;5093057;28;19955;-70
2023/07/24 00:27:16;;;;;;;;;;;;;;;;;;5093246;28;19947;-70
2023/07/24 00:29:42;;;;;;;;;;;;;;;;;;5092103;28;20072;-69
2023/07/24 00:32:09;;;;;;;;;;;;;;;;;;5093098;28;20019;-69
2023/07/24 00:34:36;;;;;;;;;;;;;;;;;;5092859;28;20018;-69
2023/07/24 00:37:03;;;;;;;;;;;;;;;;;;5092457;28;19924;-69
2023/07/24 00:39:30;;;;;;;;;;;;;;;;;;5092876;28;20019;-69
2023/07/24 00:41:57;;;;;;;;;;;;;;;;;;5092909;28;20023;-69
2023/07/24 00:44:24;;;;;;;;;;;;;;;;;;5092642;28;20007;-69
2023/07/24 00:46:51;;;;;;;;;;;;;;;;;;5078965;28;20019;-68
2023/07/24 00:49:18;;;;;;;;;;;;;;;;;;5078875;28;19997;-69
2023/07/24 00:51:45;;;;;;;;;;;;;;;;;;5092766;28;20015;-68
2023/07/24 00:54:12;;;;;;;;;;;;;;;;;;5092914;28;19924;-68
2023/07/24 00:56:39;;;;;;;;;;;;;;;;;;5092706;28;19979;-69
2023/07/24 00:59:06;;;;;;;;;;;;;;;;;;5073307;28;20382;-69
2023/07/24 01:01:33;;;;;;;;;;;;;;;;;;5072335;28;19979;-69
2023/07/24 01:04:00;;;;;;;;;;;;;;;;;;5087317;28;20007;-69
2023/07/24 01:06:27;;;;;;;;;;;;;;;;;;5091469;28;19924;-69
2023/07/24 01:08:54;;;;;;;;;;;;;;;;;;5092297;28;20023;-69
2023/07/24 01:11:21;;;;;;;;;;;;;;;;;;5092465;28;20010;-69
2023/07/24 01:13:48;;;;;;;;;;;;;;;;;;5092373;28;19924;-69
2023/07/24 01:16:15;;;;;;;;;;;;;;;;;;5092540;28;20018;-68
2023/07/24 01:18:42;;;;;;;;;;;;;;;;;;5096614;28;20418;-69
2023/07/24 01:21:09;;;;;;;;;;;;;;;;;;5079635;28;20401;-68
2023/07/24 01:23:36;;;;;;;;;;;;;;;;;;5076039;28;19924;-68
2023/07/24 01:26:03;;;;;;;;;;;;;;;;;;5089802;28;19967;-68
2023/07/24 01:28:30;;;;;;;;;;;;;;;;;;5096221;28;19924;-68
2023/07/24 01:30:57;;;;;;;;;;;;;;;;;;5094372;28;20014;-68
2023/07/24 01:33:24;;;;;;;;;;;;;;;;;;5093701;28;20019;-68
2023/07/24 01:35:51;;;;;;;;;;;;;;;;;;5087982;28;20011;-67
2023/07/24 01:38:18;;;;;;;;;;;;;;;;;;5076060;28;20331;-67
2023/07/24 01:40:45;;;;;;;;;;;;;;;;;;5093455;28;20027;-68
2023/07/24 01:43:12;;;;;;;;;;;;;;;;;;5095783;28;20014;-68
2023/07/24 01:45:39;;;;;;;;;;;;;;;;;;5095907;28;20023;-68
2023/07/24 01:48:09;;;;;;;;;;;;;;;;;;5095611;28;20387;-68
2023/07/24 01:50:36;;;;;;;;;;;;;;;;;;5095794;28;19928;-68
2023/07/24 01:53:03;;;;;;;;;;;;;;;;;;5094518;28;20026;-68
2023/07/24 01:55:30;;;;;;;;;;;;;;;;;;5094678;28;19928;-68
2023/07/24 01:57:57;;;;;;;;;;;;;;;;;;5095092;28;19924;-68
2023/07/24 02:00:24;;;;;;;;;;;;;;;;;;5090811;28;19924;-68
2023/07/24 02:02:51;;;;;;;;;;;;;;;;;;5096012;28;20039;-68
2023/07/24 02:05:18;;;;;;;;;;;;;;;;;;5094351;28;19930;-68
2023/07/24 02:07:45;;;;;;;;;;;;;;;;;;5095100;28;19931;-68
2023/07/24 02:10:12;;;;;;;;;;;;;;;;;;5094930;28;19930;-68
2023/07/24 02:12:39;;;;;;;;;;;;;;;;;;5075409;28;19931;-68
2023/07/24 02:15:06;;;;;;;;;;;;;;;;;;5075312;28;19924;-68
2023/07/24 02:17:33;;;;;;;;;;;;;;;;;;5088746;28;20011;-68
2023/07/24 02:20:00;;;;;;;;;;;;;;;;;;5093928;28;19986;-68
2023/07/24 02:22:27;;;;;;;;;;;;;;;;;;5094392;28;20014;-69
2023/07/24 02:24:54;;;;;;;;;;;;;;;;;;5095431;28;20019;-68
2023/07/24 02:27:21;;;;;;;;;;;;;;;;;;5094013;28;20011;-68
2023/07/24 02:29:48;;;;;;;;;;;;;;;;;;5086835;28;20027;-68
2023/07/24 02:32:15;;;;;;;;;;;;;;;;;;5094910;28;20091;-68
2023/07/24 02:34:42;;;;;;;;;;;;;;;;;;5095472;28;19994;-68
2023/07/24 02:37:09;;;;;;;;;;;;;;;;;;5095093;28;19960;-68
2023/07/24 02:39:35;;;;;;;;;;;;;;;;;;5095171;28;20007;-68
2023/07/24 02:42:02;;;;;;;;;;;;;;;;;;5093244;28;19924;-69
2023/07/24 02:44:29;;;;;;;;;;;;;;;;;;5092269;28;20006;-68
2023/07/24 02:46:56;;;;;;;;;;;;;;;;;;5082648;28;19970;-68
2023/07/24 02:49:23;;;;;;;;;;;;;;;;;;5094710;28;19930;-70
2023/07/24 02:51:50;;;;;;;;;;;;;;;;;;5095197;28;20022;-68
2023/07/24 02:54:17;;;;;;;;;;;;;;;;;;5093771;28;20007;-68
2023/07/24 02:56:44;;;;;;;;;;;;;;;;;;5093627;28;19935;-69
2023/07/24 02:59:11;;;;;;;;;;;;;;;;;;5094515;28;20022;-68
2023/07/24 03:01:38;;;;;;;;;;;;;;;;;;5093709;28;19924;-68
2023/07/24 03:04:08;;;;;;;;;;;;;;;;;;5094425;28;20450;-69
2023/07/24 03:06:35;;;;;;;;;;;;;;;;;;5094363;28;19928;-68
2023/07/24 03:09:02;;;;;;;;;;;;;;;;;;5094475;28;19924;-68
2023/07/24 03:11:29;;;;;;;;;;;;;;;;;;5089116;28;20007;-68
2023/07/24 03:13:56;;;;;;;;;;;;;;;;;;5093835;28;20011;-68
2023/07/24 03:16:23;;;;;;;;;;;;;;;;;;5094052;28;20023;-68
2023/07/24 03:18:50;;;;;;;;;;;;;;;;;;5093328;28;20018;-68
2023/07/24 03:21:17;;;;;;;;;;;;;;;;;;5094095;28;19924;-68
2023/07/24 03:23:44;;;;;;;;;;;;;;;;;;5094285;28;20019;-69
2023/07/24 03:26:11;;;;;;;;;;;;;;;;;;5092173;28;19924;-69
2023/07/24 03:28:38;;;;;;;;;;;;;;;;;;5093383;28;20430;-68
2023/07/24 03:31:05;;;;;;;;;;;;;;;;;;5091652;28;19928;-68
2023/07/24 03:33:32;;;;;;;;;;;;;;;;;;5093475;28;19954;-68
2023/07/24 03:35:59;;;;;;;;;;;;;;;;;;5086652;28;19924;-69
2023/07/24 03:38:26;;;;;;;;;;;;;;;;;;5074347;28;19976;-68
2023/07/24 03:40:53;;;;;;;;;;;;;;;;;;5091470;28;20010;-68
2023/07/24 03:43:20;;;;;;;;;;;;;;;;;;5091706;28;20014;-68
2023/07/24 03:45:47;;;;;;;;;;;;;;;;;;5090966;28;20030;-68
2023/07/24 03:48:13;;;;;;;;;;;;;;;;;;5091372;28;19930;-68
2023/07/24 03:50:40;;;;;;;;;;;;;;;;;;5091678;28;20240;-68
2023/07/24 03:53:07;;;;;;;;;;;;;;;;;;5090374;28;19924;-68
2023/07/24 03:55:34;;;;;;;;;;;;;;;;;;5092649;28;20023;-68
2023/07/24 03:58:01;;;;;;;;;;;;;;;;;;5093283;28;19978;-68
2023/07/24 04:00:28;;;;;;;;;;;;;;;;;;5092949;28;19924;-68
2023/07/24 04:02:55;;;;;;;;;;;;;;;;;;5093320;28;19927;-68
2023/07/24 04:05:22;;;;;;;;;;;;;;;;;;5091939;28;19924;-68
2023/07/24 04:07:49;;;;;;;;;;;;;;;;;;5091562;28;20006;-68
2023/07/24 04:10:16;;;;;;;;;;;;;;;;;;5083915;28;20398;-68
2023/07/24 04:12:43;;;;;;;;;;;;;;;;;;5072765;28;20370;-68
2023/07/24 04:15:10;;;;;;;;;;;;;;;;;;5072883;28;19925;-68
2023/07/24 04:17:38;;;;;;;;;;;;;;;;;;5072777;28;20026;-68
2023/07/24 04:20:05;;;;;;;;;;;;;;;;;;5072632;28;20421;-69
2023/07/24 04:22:32;;;;;;;;;;;;;;;;;;5072989;28;19924;-68
2023/07/24 04:24:59;;;;;;;;;;;;;;;;;;5072575;28;19954;-68
2023/07/24 04:27:26;;;;;;;;;;;;;;;;;;5073220;28;20015;-68
2023/07/24 04:29:53;;;;;;;;;;;;;;;;;;5090362;28;20454;-68
2023/07/24 04:32:20;;;;;;;;;;;;;;;;;;5091285;28;19986;-67
2023/07/24 04:34:47;;;;;;;;;;;;;;;;;;5092726;28;20011;-68
2023/07/24 04:37:14;;;;;;;;;;;;;;;;;;5092790;28;19971;-68
2023/07/24 04:39:41;;;;;;;;;;;;;;;;;;5090972;28;20402;-69
2023/07/24 04:42:08;;;;;;;;;;;;;;;;;;5091653;28;19924;-69
2023/07/24 04:44:35;;;;;;;;;;;;;;;;;;5079956;28;19925;-69
2023/07/24 04:47:02;;;;;;;;;;;;;;;;;;5072774;28;20023;-69
2023/07/24 04:49:29;;;;;;;;;;;;;;;;;;5079355;28;19924;-68
2023/07/24 04:51:56;;;;;;;;;;;;;;;;;;5092105;28;20342;-69
2023/07/24 04:54:23;;;;;;;;;;;;;;;;;;5092651;28;19946;-69
2023/07/24 04:56:50;;;;;;;;;;;;;;;;;;5092578;28;20014;-69
2023/07/24 04:59:17;;;;;;;;;;;;;;;;;;5092759;28;19924;-69
2023/07/24 05:01:44;;;;;;;;;;;;;;;;;;5079177;28;19972;-69
2023/07/24 05:04:11;;;;;;;;;;;;;;;;;;5072378;28;20466;-69
2023/07/24 05:06:38;;;;;;;;;;;;;;;;;;5072789;28;20367;-69
2023/07/24 05:09:05;;;;;;;;;;;;;;;;;;5072496;28;19924;-69
2023/07/24 05:11:32;;;;;;;;;;;;;;;;;;5072554;28;20035;-69
2023/07/24 05:13:59;;;;;;;;;;;;;;;;;;5072782;28;19931;-68
2023/07/24 05:16:26;;;;;;;;;;;;;;;;;;5071841;28;19925;-69
2023/07/24 05:18:53;;;;;;;;;;;;;;;;;;5072659;28;20037;-69
2023/07/24 05:21:20;;;;;;;;;;;;;;;;;;5071914;28;20009;-69
2023/07/24 05:23:47;;;;;;;;;;;;;;;;;;5071587;28;19963;-69
2023/07/24 05:26:14;;;;;;;;;;;;;;;;;;5071646;28;19967;-70
2023/07/24 05:28:41;;;;;;;;;;;;;;;;;;5086280;28;19931;-70
2023/07/24 05:31:08;;;;;;;;;;;;;;;;;;5089786;28;19931;-69
2023/07/24 05:33:35;;;;;;;;;;;;;;;;;;5092266;28;19932;-69
2023/07/24 05:36:02;;;;;;;;;;;;;;;;;;5092163;28;20343;-69
2023/07/24 05:38:29;;;;;;;;;;;;;;;;;;5091983;28;19924;-69
2023/07/24 05:40:56;;;;;;;;;;;;;;;;;;5090441;28;19959;-69
2023/07/24 05:43:23;;;;;;;;;;;;;;;;;;5090922;28;19969;-69
2023/07/24 05:45:50;;;;;;;;;;;;;;;;;;5090113;28;20022;-69
2023/07/24 05:48:17;;;;;;;;;;;;;;;;;;5090155;28;20015;-69
2023/07/24 05:50:44;;;;;;;;;;;;;;;;;;5090462;28;19932;-70
2023/07/24 05:53:11;;;;;;;;;;;;;;;;;;5089170;28;20380;-70
2023/07/24 05:55:38;;;;;;;;;;;;;;;;;;5089989;28;19962;-69
2023/07/24 05:58:05;;;;;;;;;;;;;;;;;;5091766;28;19924;-69
2023/07/24 06:00:32;;;;;;;;;;;;;;;;;;5091760;28;20019;-69
2023/07/24 06:02:59;;;;;;;;;;;;;;;;;;5093650;28;20356;-69
2023/07/24 06:05:26;;;;;;;;;;;;;;;;;;5095570;28;20060;-69
2023/07/24 06:07:53;;;;;;;;;;;;;;;;;;5095346;28;19924;-70
2023/07/24 06:10:20;;;;;;;;;;;;;;;;;;5076996;28;19970;-69
2023/07/24 06:12:47;;;;;;;;;;;;;;;;;;5075605;28;19925;-70
2023/07/24 06:15:14;;;;;;;;;;;;;;;;;;5075710;28;20255;-69
2023/07/24 06:17:41;;;;;;;;;;;;;;;;;;5075167;28;19933;-69
2023/07/24 06:20:08;;;;;;;;;;;;;;;;;;5075065;28;19935;-69
2023/07/24 06:22:35;;;;;;;;;;;;;;;;;;5075008;28;20378;-69
2023/07/24 06:25:02;;;;;;;;;;;;;;;;;;5074897;28;20409;-70
2023/07/24 06:27:29;;;;;;;;;;;;;;;;;;5086350;28;20424;-69
2023/07/24 06:29:56;;;;;;;;;;;;;;;;;;5094704;28;19967;-69
2023/07/24 06:32:23;;;;;;;;;;;;;;;;;;5095345;28;20101;-69
2023/07/24 06:34:50;;;;;;;;;;;;;;;;;;5093227;28;20011;-70
2023/07/24 06:37:17;;;;;;;;;;;;;;;;;;5094745;28;20011;-70
2023/07/24 06:39:44;;;;;;;;;;;;;;;;;;5092999;28;19972;-69
2023/07/24 06:42:11;;;;;;;;;;;;;;;;;;5094005;28;20340;-69
2023/07/24 06:44:38;;;;;;;;;;;;;;;;;;5094494;28;20371;-69
2023/07/24 06:47:05;;;;;;;;;;;;;;;;;;5094488;28;20361;-69
2023/07/24 06:49:32;;;;;;;;;;;;;;;;;;5092115;28;20022;-69
2023/07/24 06:51:59;;;;;;;;;;;;;;;;;;5092903;28;19932;-69
2023/07/24 06:54:26;;;;;;;;;;;;;;;;;;5094470;28;20037;-68
2023/07/24 06:56:53;;;;;;;;;;;;;;;;;;5094515;28;19974;-69
2023/07/24 06:59:20;;;;;;;;;;;;;;;;;;5092842;28;20383;-69
2023/07/24 07:01:47;;;;;;;;;;;;;;;;;;5074051;28;20375;-69
2023/07/24 07:04:14;;;;;;;;;;;;;;;;;;5074780;28;19967;-69
2023/07/24 07:06:41;;;;;;;;;;;;;;;;;;5094059;28;19928;-68
2023/07/24 07:09:08;;;;;;;;;;;;;;;;;;5093962;28;19930;-68
2023/07/24 07:11:35;;;;;;;;;;;;;;;;;;5094215;28;20031;-68
2023/07/24 07:14:02;;;;;;;;;;;;;;;;;;5093750;28;19966;-68
2023/07/24 07:16:28;;;;;;;;;;;;;;;;;;5091678;28;20011;-68
2023/07/24 07:18:56;;;;;;;;;;;;;;;;;;5086647;28;19924;-68
2023/07/24 07:21:23;;;;;;;;;;;;;;;;;;5093912;28;19924;-68
2023/07/24 07:23:49;;;;;;;;;;;;;;;;;;5093022;28;20027;-68
2023/07/24 07:26:17;;;;;;;;;;;;;;;;;;5093639;28;19928;-68
2023/07/24 07:28:44;;;;;;;;;;;;;;;;;;5093861;28;20452;-68
2023/07/24 07:31:11;;;;;;;;;;;;;;;;;;5092585;28;19931;-68
2023/07/24 07:33:38;;;;;;;;;;;;;;;;;;5091579;28;20038;-69
2023/07/24 07:36:06;;;;;;;;;;;;;;;;;;5092524;28;20012;-68
2023/07/24 07:38:33;;;;;;;;;;;;;;;;;;5093726;28;19924;-69
2023/07/24 07:41:00;;;;;;;;;;;;;;;;;;5092751;28;19985;-68
2023/07/24 07:43:27;;;;;;;;;;;;;;;;;;5092643;28;19924;-68
2023/07/24 07:45:56;;;;;;;;;;;;;;;;;;5091766;28;20298;-68
2023/07/24 07:48:23;;;;;;;;;;;;;;;;;;5093229;28;19924;-69
2023/07/24 07:50:50;;;;;;;;;;;;;;;;;;5092525;28;19930;-69
2023/07/24 07:53:17;;;;;;;;;;;;;;;;;;5093403;28;19946;-68
2023/07/24 07:55:44;;;;;;;;;;;;;;;;;;5091317;28;19946;-68
2023/07/24 07:58:11;;;;;;;;;;;;;;;;;;5072939;28;19924;-68
2023/07/24 08:00:39;;;;;;;;;;;;;;;;;;5085720;28;19974;-67
2023/07/24 08:03:06;;;;;;;;;;;;;;;;;;5093374;28;20394;-68
2023/07/24 08:05:33;;;;;;;;;;;;;;;;;;5093106;28;19984;-68
2023/07/24 08:08:00;;;;;;;;;;;;;;;;;;5085945;28;20007;-68
2023/07/24 08:10:27;;;;;;;;;;;;;;;;;;5073338;28;20003;-68
2023/07/24 08:12:54;;;;;;;;;;;;;;;;;;5088102;28;20023;-68
2023/07/24 08:15:21;;;;;;;;;;;;;;;;;;5091644;28;19928;-68
2023/07/24 08:17:48;;;;;;;;;;;;;;;;;;5093069;28;20015;-69
2023/07/24 08:20:15;;;;;;;;;;;;;;;;;;5092969;28;19924;-68
2023/07/24 08:22:42;;;;;;;;;;;;;;;;;;5090721;28;20015;-68
2023/07/24 08:25:09;;;;;;;;;;;;;;;;;;5084523;28;20379;-68
2023/07/24 08:27:35;;;;;;;;;;;;;;;;;;5072612;28;20015;-69
2023/07/24 08:30:02;;;;;;;;;;;;;;;;;;5072333;28;19925;-69
2023/07/24 08:32:29;;;;;;;;;;;;;;;;;;5072264;28;20019;-68
2023/07/24 08:34:56;;;;;;;;;;;;;;;;;;5074908;28;19924;-70
2023/07/24 08:37:23;;;;;;;;;;;;;;;;;;5091463;28;20015;-69
2023/07/24 08:39:50;;;;;;;;;;;;;;;;;;5092074;28;20015;-69
2023/07/24 08:42:17;;;;;;;;;;;;;;;;;;5082058;28;19925;-69
2023/07/24 08:44:44;;;;;;;;;;;;;;;;;;5071797;28;20470;-69
2023/07/24 08:47:11;;;;;;;;;;;;;;;;;;5072256;28;19929;-70
2023/07/24 08:49:38;;;;;;;;;;;;;;;;;;5072300;28;19937;-69
2023/07/24 08:52:05;;;;;;;;;;;;;;;;;;5072355;28;20019;-70
2023/07/24 08:54:32;;;;;;;;;;;;;;;;;;5072331;28;20431;-71
2023/07/24 08:56:59;;;;;;;;;;;;;;;;;;5072410;28;20486;-69
2023/07/24 08:59:26;;;;;;;;;;;;;;;;;;5083094;28;19959;-69
2023/07/24 09:01:53;;;;;;;;;;;;;;;;;;5093010;28;20283;-69
2023/07/24 09:04:20;;;;;;;;;;;;;;;;;;5092227;28;19928;-69
2023/07/24 09:06:47;;;;;;;;;;;;;;;;;;5092600;28;19975;-69
2023/07/24 09:09:15;;;;;;;;;;;;;;;;;;5092473;28;19986;-69
2023/07/24 09:11:42;;;;;;;;;;;;;;;;;;5091384;28;19924;-70
2023/07/24 09:14:09;;;;;;;;;;;;;;;;;;5091860;28;20344;-69
2023/07/24 09:16:36;;;;;;;;;;;;;;;;;;5090258;28;19932;-69
2023/07/24 09:19:03;;;;;;;;;;;;;;;;;;5073731;28;20027;-69
2023/07/24 09:21:29;;;;;;;;;;;;;;;;;;5071484;28;20016;-70
2023/07/24 09:23:57;;;;;;;;;;;;;;;;;;5071718;28;19925;-69
2023/07/24 09:26:24;;;;;;;;;;;;;;;;;;5072270;28;19929;-69
2023/07/24 09:28:51;;;;;;;;;;;;;;;;;;5071781;28;19925;-68
2023/07/24 09:31:18;;;;;;;;;;;;;;;;;;5089710;28;20015;-70
2023/07/24 09:33:45;;;;;;;;;;;;;;;;;;5091259;28;20004;-70
2023/07/24 09:36:12;;;;;;;;;;;;;;;;;;5091638;28;19924;-70
2023/07/24 09:38:39;;;;;;;;;;;;;;;;;;5093229;28;19925;-70
2023/07/24 09:41:06;;;;;;;;;;;;;;;;;;5086760;28;19974;-70
2023/07/24 09:43:35;;;;;;;;;;;;;;;;;;5075852;28;20007;-70
2023/07/24 09:46:02;;;;;;;;;;;;;;;;;;5083776;28;19924;-68
2023/07/24 09:48:29;;;;;;;;;;;;;;;;;;5095711;28;20469;-69
2023/07/24 09:50:56;;;;;;;;;;;;;;;;;;5094866;28;19998;-68
2023/07/24 09:53:23;;;;;;;;;;;;;;;;;;5095662;28;19924;-68
2023/07/24 09:55:50;;;;;;;;;;;;;;;;;;5095090;28;19965;-68
2023/07/24 09:58:17;;;;;;;;;;;;;;;;;;5085998;28;19925;-68
2023/07/24 10:00:44;;;;;;;;;;;;;;;;;;5074969;28;20012;-68
2023/07/24 10:03:11;;;;;;;;;;;;;;;;;;5075315;28;20003;-68
2023/07/24 10:05:38;;;;;;;;;;;;;;;;;;5075459;28;19975;-68
2023/07/24 10:08:05;;;;;;;;;;;;;;;;;;5090325;28;20015;-69
2023/07/24 10:10:32;;;;;;;;;;;;;;;;;;5094879;28;20370;-68
2023/07/24 10:12:59;;;;;;;;;;;;;;;;;;5095370;28;20291;-68
2023/07/24 10:15:26;;;;;;;;;;;;;;;;;;5095102;28;20023;-70
2023/07/24 10:17:53;;;;;;;;;;;;;;;;;;5094851;28;19923;-70
2023/07/24 10:20:20;;;;;;;;;;;;;;;;;;5095227;28;20014;-69
2023/07/24 10:22:47;;;;;;;;;;;;;;;;;;5094963;28;19970;-70
2023/07/24 10:25:14;;;;;;;;;;;;;;;;;;5077500;28;19924;-69
2023/07/24 10:27:41;;;;;;;;;;;;;;;;;;5074832;28;20007;-70
2023/07/24 10:30:08;;;;;;;;;;;;;;;;;;5074713;28;20298;-70
2023/07/24 10:32:35;;;;;;;;;;;;;;;;;;5074388;28;19983;-70
2023/07/24 10:35:02;;;;;;;;;;;;;;;;;;5075480;28;20007;-70
2023/07/24 10:37:29;;;;;;;;;;;;;;;;;;5094663;28;19959;-70
2023/07/24 10:39:56;;;;;;;;;;;;;;;;;;5094975;28;20022;-70
2023/07/24 10:42:23;;;;;;;;;;;;;;;;;;5094090;28;19930;-70
2023/07/24 10:44:50;;;;;;;;;;;;;;;;;;5094717;28;20014;-69
2023/07/24 10:47:20;;;;;;;;;;;;;;;;;;5095059;28;19924;-70
2023/07/24 10:49:47;;;;;;;;;;;;;;;;;;5093833;28;20260;-70
2023/07/24 10:52:14;;;;;;;;;;;;;;;;;;5094699;28;19959;-68
2023/07/24 10:54:41;;;;;;;;;;;;;;;;;;5094839;28;20011;-68
2023/07/24 10:57:10;;;;;;;;;;;;;;;;;;5094365;28;19971;-69
2023/07/24 10:59:37;;;;;;;;;;;;;;;;;;5092845;28;20015;-68
2023/07/24 11:02:04;;;;;;;;;;;;;;;;;;5093726;28;19925;-69
2023/07/24 11:04:31;;;;;;;;;;;;;;;;;;5094636;28;19977;-70
2023/07/24 11:06:58;;;;;;;;;;;;;;;;;;5094661;28;20015;-70
2023/07/24 11:09:25;;;;;;;;;;;;;;;;;;5094416;28;20367;-70
2023/07/24 11:11:51;;;;;;;;;;;;;;;;;;5094288;28;19967;-70
2023/07/24 11:14:18;;;;;;;;;;;;;;;;;;5093428;28;20007;-70
2023/07/24 11:16:45;;;;;;;;;;;;;;;;;;5074055;28;19928;-70
2023/07/24 11:19:12;;;;;;;;;;;;;;;;;;5073954;28;19924;-70
2023/07/24 11:21:39;;;;;;;;;;;;;;;;;;5073953;28;19981;-70
2023/07/24 11:24:07;;;;;;;;;;;;;;;;;;5073628;28;19931;-69
2023/07/24 11:26:34;;;;;;;;;;;;;;;;;;5073625;28;20298;-70
2023/07/24 11:29:01;;;;;;;;;;;;;;;;;;5073815;28;19967;-70
2023/07/24 11:31:28;;;;;;;;;;;;;;;;;;5074206;28;19934;-70
2023/07/24 11:33:55;;;;;;;;;;;;;;;;;;5076252;28;19986;-70
2023/07/24 11:36:22;;;;;;;;;;;;;;;;;;5091896;28;19924;-70
2023/07/24 11:38:49;;;;;;;;;;;;;;;;;;5091824;28;19928;-70
2023/07/24 11:41:16;;;;;;;;;;;;;;;;;;5093601;28;19924;-70
2023/07/24 11:43:43;;;;;;;;;;;;;;;;;;5092141;28;19977;-69
2023/07/24 11:46:10;;;;;;;;;;;;;;;;;;5092946;28;20007;-70
2023/07/24 11:48:37;;;;;;;;;;;;;;;;;;5092793;28;19934;-70
2023/07/24 11:51:04;;;;;;;;;;;;;;;;;;5093531;28;20429;-70
2023/07/24 11:53:31;;;;;;;;;;;;;;;;;;5093251;28;19959;-70
2023/07/24 11:56:00;;;;;;;;;;;;;;;;;;5093672;28;19928;-70
2023/07/24 11:58:27;;;;;;;;;;;;;;;;;;5093226;28;19993;-70
2023/07/24 12:00:54;;;;;;;;;;;;;;;;;;5092706;28;20006;-69
2023/07/24 12:03:22;;;;;;;;;;;;;;;;;;5093625;28;19924;-70
2023/07/24 12:05:50;;;;;;;;;;;;;;;;;;5092451;28;19932;-70
2023/07/24 12:08:19;;;;;;;;;;;;;;;;;;5093884;28;19967;-69
2023/07/24 12:10:46;;;;;;;;;;;;;;;;;;5092788;28;20412;-69
2023/07/24 12:13:12;;;;;;;;;;;;;;;;;;5093131;28;20364;-70
2023/07/24 12:15:39;;;;;;;;;;;;;;;;;;5092875;28;19967;-70
2023/07/24 12:18:06;;;;;;;;;;;;;;;;;;5091380;28;20011;-70
2023/07/24 12:20:34;;;;;;;;;;;;;;;;;;5093115;28;20011;-70
2023/07/24 12:23:00;;;;;;;;;;;;;;;;;;5085980;28;19931;-71
2023/07/24 12:25:27;;;;;;;;;;;;;;;;;;5072910;28;20343;-70
2023/07/24 12:27:54;;;;;;;;;;;;;;;;;;5072736;28;20011;-70
2023/07/24 12:30:21;;;;;;;;;;;;;;;;;;5082910;28;19970;-70
2023/07/24 12:32:48;;;;;;;;;;;;;;;;;;5082845;28;20023;-70
2023/07/24 12:35:15;;;;;;;;;;;;;;;;;;5082728;28;20011;-70
2023/07/24 12:37:42;;;;;;;;;;;;;;;;;;5092140;28;19924;-70
2023/07/24 12:40:09;;;;;;;;;;;;;;;;;;5090663;28;19979;-70
2023/07/24 12:42:36;;;;;;;;;;;;;;;;;;5092535;28;20011;-70
2023/07/24 12:45:03;;;;;;;;;;;;;;;;;;5092585;28;19963;-70
2023/07/24 12:47:30;;;;;;;;;;;;;;;;;;5092456;28;19924;-70
2023/07/24 12:49:58;;;;;;;;;;;;;;;;;;5092532;28;20335;-70
2023/07/24 12:52:25;;;;;;;;;;;;;;;;;;5092749;28;19924;-70
2023/07/24 12:54:52;;;;;;;;;;;;;;;;;;5092338;28;20382;-70
2023/07/24 12:57:19;;;;;;;;;;;;;;;;;;5082881;28;20370;-72
2023/07/24 12:59:46;;;;;;;;;;;;;;;;;;5072377;28;19975;-69
2023/07/24 13:02:13;;;;;;;;;;;;;;;;;;5072367;28;19970;-70
2023/07/24 13:04:40;;;;;;;;;;;;;;;;;;5072201;28;20024;-70
2023/07/24 13:07:07;;;;;;;;;;;;;;;;;;5072486;28;20378;-69
2023/07/24 13:09:34;;;;;;;;;;;;;;;;;;5072461;28;20011;-69
2023/07/24 13:12:01;;;;;;;;;;;;;;;;;;5072287;28;20021;-69
2023/07/24 13:14:28;;;;;;;;;;;;;;;;;;5086816;28;20284;-69
2023/07/24 13:16:55;;;;;;;;;;;;;;;;;;5096603;28;19955;-69
2023/07/24 13:19:22;;;;;;;;;;;;;;;;;;5096456;28;19967;-69
2023/07/24 13:21:49;;;;;;;;;;;;;;;;;;5096268;28;19931;-69
2023/07/24 13:24:16;;;;;;;;;;;;;;;;;;5095805;28;20016;-69
2023/07/24 13:26:43;;;;;;;;;;;;;;;;;;5092372;28;19931;-70
2023/07/24 13:29:11;;;;;;;;;;;;;;;;;;5096159;28;19928;-69
2023/07/24 13:31:40;;;;;;;;;;;;;;;;;;5095379;28;19924;-69
2023/07/24 13:34:07;;;;;;;;;;;;;;;;;;5096051;28;19943;-70
2023/07/24 13:36:34;;;;;;;;;;;;;;;;;;5096164;28;20359;-70
2023/07/24 13:39:01;;;;;;;;;;;;;;;;;;5093653;28;20381;-69
2023/07/24 13:41:28;;;;;;;;;;;;;;;;;;5087731;28;19982;-70
2023/07/24 13:43:55;;;;;;;;;;;;;;;;;;5075409;28;20518;-72
2023/07/24 13:46:22;;;;;;;;;;;;;;;;;;5084793;28;20006;-73
2023/07/24 13:48:48;;;;;;;;;;;;;;;;;;5081254;28;19924;-73
2023/07/24 13:51:15;;;;;;;;;;;;;;;;;;5074536;28;20019;-70
2023/07/24 13:53:42;;;;;;;;;;;;;;;;;;5074940;28;20011;-71
2023/07/24 13:56:10;;;;;;;;;;;;;;;;;;5075172;28;19924;-70
2023/07/24 13:58:37;;;;;;;;;;;;;;;;;;5085015;28;20011;-70
2023/07/24 14:01:07;;;;;;;;;;;;;;;;;;5095384;28;20333;-70
2023/07/24 14:03:34;;;;;;;;;;;;;;;;;;5095756;28;19923;-70
2023/07/24 14:06:00;;;;;;;;;;;;;;;;;;5079832;28;19956;-66
2023/07/24 14:08:27;;;;;;;;;;;;;;;;;;5075649;28;20019;-67
2023/07/24 14:10:54;;;;;;;;;;;;;;;;;;5074763;28;19924;-68
2023/07/24 14:13:21;;;;;;;;;;;;;;;;;;5074971;28;19947;-68
2023/07/24 14:15:48;;;;;;;;;;;;;;;;;;5074803;28;20298;-68
2023/07/24 14:18:15;;;;;;;;;;;;;;;;;;5074880;28;20011;-68
2023/07/24 14:20:42;;;;;;;;;;;;;;;;;;5094829;28;19931;-68
2023/07/24 14:23:09;;;;;;;;;;;;;;;;;;5078269;28;20018;-68
2023/07/24 14:25:36;;;;;;;;;;;;;;;;;;5074746;28;20031;-68
2023/07/24 14:28:03;;;;;;;;;;;;;;;;;;5074588;28;19925;-69
2023/07/24 14:30:30;;;;;;;;;;;;;;;;;;5083275;28;20298;-69
2023/07/24 14:32:57;;;;;;;;;;;;;;;;;;5095376;28;20011;-69
2023/07/24 14:35:24;;;;;;;;;;;;;;;;;;5095696;28;19931;-69
2023/07/24 14:37:52;;;;;;;;;;;;;;;;;;5094895;28;20010;-69
2023/07/24 14:40:19;;;;;;;;;;;;;;;;;;5076243;28;19931;-68
2023/07/24 14:42:46;;;;;;;;;;;;;;;;;;5074533;28;20000;-68
2023/07/24 14:45:13;;;;;;;;;;;;;;;;;;5074123;28;19970;-69
2023/07/24 14:47:40;;;;;;;;;;;;;;;;;;5074337;28;20026;-69
2023/07/24 14:50:06;;;;;;;;;;;;;;;;;;5091372;28;20422;-69
2023/07/24 14:52:33;;;;;;;;;;;;;;;;;;5094511;28;20371;-69
2023/07/24 14:55:00;;;;;;;;;;;;;;;;;;5094714;28;20357;-69
2023/07/24 14:57:27;;;;;;;;;;;;;;;;;;5093929;28;20031;-69
2023/07/24 14:59:54;;;;;;;;;;;;;;;;;;5094311;28;19926;-69
2023/07/24 15:02:21;;;;;;;;;;;;;;;;;;5094493;28;20018;-69
2023/07/24 15:04:48;;;;;;;;;;;;;;;;;;5094182;28;19924;-69
2023/07/24 15:07:15;;;;;;;;;;;;;;;;;;5094235;28;19932;-69
2023/07/24 15:09:42;;;;;;;;;;;;;;;;;;5094236;28;20471;-69
2023/07/24 15:12:09;;;;;;;;;;;;;;;;;;5094065;28;19924;-69
2023/07/24 15:14:36;;;;;;;;;;;;;;;;;;5093695;28;19944;-68
2023/07/24 15:17:03;;;;;;;;;;;;;;;;;;5094276;28;20371;-69
2023/07/24 15:19:30;;;;;;;;;;;;;;;;;;5092959;28;20368;-69
2023/07/24 15:21:57;;;;;;;;;;;;;;;;;;5094069;28;20034;-69
2023/07/24 15:24:24;;;;;;;;;;;;;;;;;;5094195;28;19928;-69
2023/07/24 15:26:51;;;;;;;;;;;;;;;;;;5094103;28;20022;-69
2023/07/24 15:29:18;;;;;;;;;;;;;;;;;;5092877;28;20337;-69
2023/07/24 15:31:45;;;;;;;;;;;;;;;;;;5093625;28;20410;-70
2023/07/24 15:34:12;;;;;;;;;;;;;;;;;;5093511;28;19924;-69
2023/07/24 15:36:39;;;;;;;;;;;;;;;;;;5092974;28;19924;-70
2023/07/24 15:39:06;;;;;;;;;;;;;;;;;;5093270;28;20023;-70
2023/07/24 15:41:33;;;;;;;;;;;;;;;;;;5093442;28;20019;-69
2023/07/24 15:44:00;;;;;;;;;;;;;;;;;;5092631;28;19999;-70
2023/07/24 15:46:28;;;;;;;;;;;;;;;;;;5085551;28;19928;-69
2023/07/24 15:48:55;;;;;;;;;;;;;;;;;;5082581;28;19978;-69
2023/07/24 15:51:22;;;;;;;;;;;;;;;;;;5094060;28;19924;-69
2023/07/24 15:53:49;;;;;;;;;;;;;;;;;;5076955;28;20015;-69
2023/07/24 15:56:16;;;;;;;;;;;;;;;;;;5073200;28;19924;-69
2023/07/24 15:58:43;;;;;;;;;;;;;;;;;;5072921;28;19924;-69
2023/07/24 16:01:10;;;;;;;;;;;;;;;;;;5072853;28;19924;-69
2023/07/24 16:03:37;;;;;;;;;;;;;;;;;;5076407;28;19924;-69
2023/07/24 16:06:04;;;;;;;;;;;;;;;;;;5075538;28;20487;-70
2023/07/24 16:08:31;;;;;;;;;;;;;;;;;;5072976;28;19952;-69
2023/07/24 16:10:58;;;;;;;;;;;;;;;;;;5072855;28;19931;-69
2023/07/24 16:13:25;;;;;;;;;;;;;;;;;;5088984;28;19931;-69
2023/07/24 16:15:52;;;;;;;;;;;;;;;;;;5092797;28;20349;-70
2023/07/24 16:18:19;;;;;;;;;;;;;;;;;;5093267;28;20367;-70
2023/07/24 16:20:46;;;;;;;;;;;;;;;;;;5088031;28;19947;-70
2023/07/24 16:23:13;;;;;;;;;;;;;;;;;;5072305;28;20383;-70
2023/07/24 16:25:40;;;;;;;;;;;;;;;;;;5072540;28;19944;-70
2023/07/24 16:28:07;;;;;;;;;;;;;;;;;;5080871;28;20031;-70
2023/07/24 16:30:35;;;;;;;;;;;;;;;;;;5092048;28;20027;-70
2023/07/24 16:33:02;;;;;;;;;;;;;;;;;;5092497;28;19928;-69
2023/07/24 16:35:29;;;;;;;;;;;;;;;;;;5092823;28;19924;-69
2023/07/24 16:37:56;;;;;;;;;;;;;;;;;;5090574;28;19932;-70
2023/07/24 16:40:23;;;;;;;;;;;;;;;;;;5092577;28;20010;-70
2023/07/24 16:42:49;;;;;;;;;;;;;;;;;;5092831;28;19959;-70